createdAt,value
2018-03-14T00:00:38.396Z,99.99
2018-03-14T00:01:38.378Z,99.99
2018-03-14T00:02:38.351Z,99.99
2018-03-14T00:03:38.339Z,99.99
2018-03-14T00:04:38.344Z,99.99
2018-03-14T00:05:38.292Z,99.99
2018-03-14T00:06:38.276Z,99.99
2018-03-14T00:07:38.250Z,99.99
2018-03-14T00:08:38.246Z,99.99
2018-03-14T00:09:38.215Z,99.99
2018-03-14T00:10:38.185Z,99.99
2018-03-14T00:11:38.164Z,99.99
2018-03-14T00:12:38.145Z,99.99
2018-03-14T00:13:38.129Z,99.99
2018-03-14T00:14:38.103Z,99.99
2018-03-14T00:15:38.083Z,99.99
2018-03-14T00:16:38.065Z,99.99
2018-03-14T00:17:38.043Z,99.99
2018-03-14T00:18:38.021Z,99.99
2018-03-14T00:19:38.005Z,99.99
2018-03-14T00:20:37.980Z,99.99
2018-03-14T00:21:37.957Z,99.99
2018-03-14T00:22:37.946Z,99.99
2018-03-14T00:23:37.918Z,99.99
2018-03-14T00:24:37.898Z,99.99
2018-03-14T00:25:37.876Z,99.99
2018-03-14T00:26:37.857Z,99.99
2018-03-14T00:27:37.836Z,99.99
2018-03-14T00:28:37.817Z,99.99
2018-03-14T00:29:37.795Z,99.99
2018-03-14T00:30:37.775Z,99.99
2018-03-14T00:31:37.752Z,99.99
2018-03-14T00:32:37.730Z,99.99
2018-03-14T00:33:37.713Z,99.99
2018-03-14T00:34:37.686Z,99.99
2018-03-14T00:35:37.670Z,99.99
2018-03-14T00:36:37.646Z,99.99
2018-03-14T00:37:37.625Z,99.99
2018-03-14T00:38:37.605Z,99.99
2018-03-14T00:39:37.583Z,99.99
2018-03-14T00:40:37.560Z,99.99
2018-03-14T00:41:37.541Z,99.99
2018-03-14T00:42:37.519Z,99.99
2018-03-14T00:43:37.498Z,99.99
2018-03-14T00:44:37.475Z,99.99
2018-03-14T00:45:37.454Z,99.99
2018-03-14T00:46:37.439Z,99.99
2018-03-14T00:47:37.414Z,99.99
2018-03-14T00:48:37.396Z,99.99
2018-03-14T00:49:37.372Z,99.99
2018-03-14T00:50:37.359Z,99.99
2018-03-14T00:51:37.332Z,99.99
2018-03-14T00:52:37.316Z,99.99
2018-03-14T00:53:37.292Z,99.99
2018-03-14T00:54:37.269Z,99.99
2018-03-14T00:55:37.247Z,99.99
2018-03-14T00:56:37.226Z,99.99
2018-03-14T00:57:37.208Z,99.99
2018-03-14T00:58:37.187Z,99.99
2018-03-14T00:59:37.175Z,99.99
2018-03-14T01:00:37.145Z,99.99
2018-03-14T01:01:37.122Z,99.99
2018-03-14T01:02:37.101Z,99.99
2018-03-14T01:03:37.079Z,99.99
2018-03-14T01:04:37.060Z,99.99
2018-03-14T01:05:37.040Z,99.99
2018-03-14T01:06:37.028Z,99.99
2018-03-14T01:07:37.006Z,99.99
2018-03-14T01:08:36.977Z,99.99
2018-03-14T01:09:36.958Z,99.99
2018-03-14T01:10:36.938Z,99.99
2018-03-14T01:11:36.915Z,99.99
2018-03-14T01:12:36.901Z,99.99
2018-03-14T01:13:36.870Z,99.99
2018-03-14T01:14:36.851Z,99.99
2018-03-14T01:15:36.834Z,99.99
2018-03-14T01:16:36.806Z,99.99
2018-03-14T01:17:36.786Z,99.99
2018-03-14T01:18:36.776Z,99.99
2018-03-14T01:19:36.747Z,99.99
2018-03-14T01:20:36.736Z,99.99
2018-03-14T01:21:36.703Z,99.99
2018-03-14T01:22:36.680Z,99.99
2018-03-14T01:23:36.662Z,99.99
2018-03-14T01:24:36.640Z,99.99
2018-03-14T01:25:36.623Z,99.99
2018-03-14T01:26:36.600Z,99.99
2018-03-14T01:27:36.578Z,99.99
2018-03-14T01:28:36.556Z,99.99
2018-03-14T01:29:36.534Z,99.99
2018-03-14T01:30:36.517Z,99.99
2018-03-14T01:31:36.492Z,99.99
2018-03-14T01:32:36.469Z,99.99
2018-03-14T01:33:36.450Z,99.99
2018-03-14T01:34:36.438Z,99.99
2018-03-14T01:35:36.411Z,99.99
2018-03-14T01:36:36.386Z,99.99
2018-03-14T01:37:36.367Z,99.99
2018-03-14T01:38:36.347Z,99.99
2018-03-14T01:39:36.332Z,99.99
2018-03-14T01:40:36.304Z,99.99
2018-03-14T01:41:36.284Z,99.99
2018-03-14T01:42:36.264Z,99.99
2018-03-14T01:43:36.243Z,99.99
2018-03-14T01:44:36.221Z,99.99
2018-03-14T01:45:36.203Z,99.99
2018-03-14T01:46:36.186Z,99.99
2018-03-14T01:47:36.160Z,99.99
2018-03-14T01:48:36.133Z,99.99
2018-03-14T01:49:36.123Z,99.99
2018-03-14T01:50:36.097Z,99.99
2018-03-14T01:51:36.075Z,99.99
2018-03-14T01:52:36.052Z,99.99
2018-03-14T01:53:36.032Z,99.99
2018-03-14T01:54:36.020Z,99.99
2018-03-14T01:55:35.994Z,99.99
2018-03-14T01:56:35.973Z,99.99
2018-03-14T01:57:35.946Z,99.99
2018-03-14T01:58:35.925Z,99.99
2018-03-14T01:59:35.906Z,99.99
2018-03-14T02:00:35.885Z,99.99
2018-03-14T02:01:35.871Z,99.99
2018-03-14T02:02:35.847Z,99.99
2018-03-14T02:03:35.822Z,99.99
2018-03-14T02:04:35.798Z,99.99
2018-03-14T02:05:35.784Z,99.99
2018-03-14T02:06:35.755Z,99.99
2018-03-14T02:07:35.736Z,99.99
2018-03-14T02:08:35.713Z,99.99
2018-03-14T02:09:35.695Z,99.99
2018-03-14T02:10:35.679Z,99.99
2018-03-14T02:11:35.655Z,99.99
2018-03-14T02:12:35.634Z,99.99
2018-03-14T02:13:35.612Z,99.99
2018-03-14T02:14:35.595Z,99.99
2018-03-14T02:15:35.570Z,99.99
2018-03-14T02:16:35.553Z,99.99
2018-03-14T02:17:35.530Z,99.99
2018-03-14T02:18:35.509Z,99.99
2018-03-14T02:19:35.484Z,99.99
2018-03-14T02:20:35.464Z,99.99
2018-03-14T02:21:35.443Z,99.99
2018-03-14T02:22:35.421Z,99.99
2018-03-14T02:23:35.402Z,99.99
2018-03-14T02:24:35.378Z,99.99
2018-03-14T02:25:35.358Z,99.99
2018-03-14T02:26:35.336Z,99.99
2018-03-14T02:27:35.316Z,99.99
2018-03-14T02:28:35.296Z,99.99
2018-03-14T02:29:35.276Z,99.99
2018-03-14T02:30:35.254Z,99.99
2018-03-14T02:31:35.233Z,99.99
2018-03-14T02:32:35.217Z,99.99
2018-03-14T02:33:35.190Z,99.99
2018-03-14T02:34:35.174Z,99.99
2018-03-14T02:35:35.146Z,99.99
2018-03-14T02:36:35.129Z,99.99
2018-03-14T02:37:35.103Z,99.99
2018-03-14T02:38:35.089Z,99.99
2018-03-14T02:39:35.062Z,99.99
2018-03-14T02:40:35.043Z,99.99
2018-03-14T02:41:35.017Z,99.99
2018-03-14T02:42:34.998Z,99.99
2018-03-14T02:43:34.977Z,99.99
2018-03-14T02:44:34.954Z,99.99
2018-03-14T02:45:34.934Z,99.99
2018-03-14T02:46:34.915Z,99.99
2018-03-14T02:47:34.900Z,99.99
2018-03-14T02:48:34.870Z,99.99
2018-03-14T02:49:34.852Z,99.99
2018-03-14T02:50:34.830Z,99.99
2018-03-14T02:51:34.808Z,99.99
2018-03-14T02:52:34.792Z,99.99
2018-03-14T02:53:34.767Z,99.99
2018-03-14T02:54:34.747Z,99.99
2018-03-14T02:55:34.726Z,99.99
2018-03-14T02:56:34.708Z,99.99
2018-03-14T02:57:34.683Z,99.99
2018-03-14T02:58:34.660Z,99.99
2018-03-14T02:59:34.640Z,99.99
2018-03-14T03:00:34.621Z,99.99
2018-03-14T03:01:34.596Z,99.99
2018-03-14T03:02:34.577Z,99.99
2018-03-14T03:03:34.555Z,99.99
2018-03-14T03:04:34.537Z,99.99
2018-03-14T03:05:34.519Z,99.99
2018-03-14T03:06:34.501Z,99.99
2018-03-14T03:07:34.470Z,99.99
2018-03-14T03:08:34.453Z,99.99
2018-03-14T03:09:34.427Z,99.99
2018-03-14T03:10:34.407Z,99.99
2018-03-14T03:11:34.384Z,99.99
2018-03-14T03:12:34.365Z,99.99
2018-03-14T03:13:34.344Z,99.99
2018-03-14T03:14:34.324Z,99.99
2018-03-14T03:15:34.303Z,99.99
2018-03-14T03:16:34.283Z,99.99
2018-03-14T03:17:34.265Z,99.99
2018-03-14T03:18:34.243Z,99.99
2018-03-14T03:19:34.221Z,99.99
2018-03-14T03:20:34.197Z,99.99
2018-03-14T03:21:34.178Z,99.99
2018-03-14T03:22:34.154Z,99.99
2018-03-14T03:23:34.137Z,99.99
2018-03-14T03:24:34.115Z,99.99
2018-03-14T03:25:34.091Z,99.99
2018-03-14T03:26:34.071Z,99.99
2018-03-14T03:27:34.049Z,99.99
2018-03-14T03:28:34.030Z,99.99
2018-03-14T03:29:34.015Z,99.99
2018-03-14T03:30:33.987Z,99.99
2018-03-14T03:31:33.982Z,99.99
2018-03-14T03:32:33.946Z,99.99
2018-03-14T03:33:33.924Z,99.99
2018-03-14T03:34:33.902Z,99.99
2018-03-14T03:35:33.886Z,99.99
2018-03-14T03:36:33.859Z,99.99
2018-03-14T03:37:33.844Z,99.99
2018-03-14T03:38:33.822Z,99.99
2018-03-14T03:39:33.798Z,99.99
2018-03-14T03:40:33.774Z,99.99
2018-03-14T03:41:33.753Z,99.99
2018-03-14T03:42:33.736Z,99.99
2018-03-14T03:43:33.712Z,99.99
2018-03-14T03:44:33.696Z,99.99
2018-03-14T03:45:33.672Z,99.99
2018-03-14T03:46:33.651Z,99.99
2018-03-14T03:47:33.632Z,99.99
2018-03-14T03:48:33.617Z,99.99
2018-03-14T03:49:33.586Z,99.99
2018-03-14T03:50:33.567Z,99.99
2018-03-14T03:51:33.551Z,99.99
2018-03-14T03:52:33.526Z,99.99
2018-03-14T03:53:33.503Z,99.99
2018-03-14T03:54:33.482Z,99.99
2018-03-14T03:55:33.475Z,99.99
2018-03-14T03:56:33.442Z,99.99
2018-03-14T03:57:33.420Z,99.99
2018-03-14T03:58:33.397Z,99.99
2018-03-14T03:59:33.383Z,99.99
2018-03-14T04:00:33.356Z,99.99
2018-03-14T04:01:33.337Z,99.99
2018-03-14T04:02:33.316Z,99.99
2018-03-14T04:03:33.293Z,99.99
2018-03-14T04:04:33.276Z,99.99
2018-03-14T04:05:33.254Z,99.99
2018-03-14T04:06:33.242Z,99.99
2018-03-14T04:07:33.209Z,99.99
2018-03-14T04:08:33.189Z,99.99
2018-03-14T04:09:33.173Z,99.99
2018-03-14T04:10:33.150Z,99.99
2018-03-14T04:11:33.126Z,99.99
2018-03-14T04:12:33.105Z,99.99
2018-03-14T04:13:33.088Z,99.99
2018-03-14T04:14:33.112Z,99.99
2018-03-14T04:15:33.049Z,99.99
2018-03-14T04:16:33.025Z,99.99
2018-03-14T04:17:33.002Z,99.99
2018-03-14T04:18:32.980Z,99.99
2018-03-14T04:19:32.961Z,99.99
2018-03-14T04:20:32.936Z,99.99
2018-03-14T04:21:32.965Z,99.99
2018-03-14T04:22:32.895Z,99.99
2018-03-14T04:23:32.877Z,99.99
2018-03-14T04:24:32.858Z,99.99
2018-03-14T04:25:32.842Z,99.99
2018-03-14T04:26:32.813Z,99.99
2018-03-14T04:27:32.790Z,99.99
2018-03-14T04:28:32.772Z,99.99
2018-03-14T04:29:32.747Z,99.99
2018-03-14T04:30:32.731Z,99.99
2018-03-14T04:31:32.715Z,99.99
2018-03-14T04:32:32.689Z,99.99
2018-03-14T04:33:32.664Z,99.99
2018-03-14T04:34:32.644Z,99.99
2018-03-14T04:35:32.627Z,99.99
2018-03-14T04:36:32.605Z,99.99
2018-03-14T04:37:32.583Z,99.99
2018-03-14T04:38:32.561Z,99.99
2018-03-14T04:39:32.541Z,99.99
2018-03-14T04:40:32.517Z,99.99
2018-03-14T04:41:32.495Z,99.99
2018-03-14T04:42:32.476Z,99.99
2018-03-14T04:43:32.457Z,99.99
2018-03-14T04:44:32.435Z,99.99
2018-03-14T04:45:32.414Z,99.99
2018-03-14T04:46:32.392Z,99.99
2018-03-14T04:47:32.376Z,99.99
2018-03-14T04:48:32.356Z,99.99
2018-03-14T04:49:32.332Z,99.99
2018-03-14T04:50:32.314Z,99.99
2018-03-14T04:51:32.292Z,99.99
2018-03-14T04:52:32.268Z,99.99
2018-03-14T04:53:32.261Z,99.99
2018-03-14T04:54:32.226Z,99.99
2018-03-14T04:55:32.207Z,99.99
2018-03-14T04:56:32.185Z,99.99
2018-03-14T04:57:32.165Z,99.99
2018-03-14T04:58:32.149Z,99.99
2018-03-14T04:59:32.124Z,99.99
2018-03-14T05:00:32.102Z,99.99
2018-03-14T05:01:32.080Z,99.99
2018-03-14T05:02:32.061Z,99.99
2018-03-14T05:03:32.042Z,99.99
2018-03-14T05:04:32.018Z,99.99
2018-03-14T05:05:31.994Z,99.99
2018-03-14T05:06:31.976Z,99.99
2018-03-14T05:07:32.007Z,99.99
2018-03-14T05:08:31.937Z,99.99
2018-03-14T05:09:31.914Z,99.99
2018-03-14T05:10:31.894Z,99.99
2018-03-14T05:11:31.870Z,99.99
2018-03-14T05:12:31.847Z,99.99
2018-03-14T05:13:31.832Z,99.99
2018-03-14T05:14:31.806Z,99.99
2018-03-14T05:15:31.788Z,99.99
2018-03-14T05:16:31.768Z,99.99
2018-03-14T05:17:31.745Z,99.99
2018-03-14T05:18:31.731Z,99.99
2018-03-14T05:19:31.704Z,99.99
2018-03-14T05:20:31.684Z,99.99
2018-03-14T05:21:31.659Z,99.99
2018-03-14T05:22:31.639Z,99.99
2018-03-14T05:23:31.625Z,99.99
2018-03-14T05:24:31.597Z,99.99
2018-03-14T05:25:31.576Z,99.99
2018-03-14T05:26:31.557Z,99.99
2018-03-14T05:27:31.538Z,99.99
2018-03-14T05:28:31.513Z,99.99
2018-03-14T05:29:31.491Z,99.99
2018-03-14T05:30:31.471Z,99.99
2018-03-14T05:31:31.452Z,99.99
2018-03-14T05:32:31.436Z,99.99
2018-03-14T05:33:31.410Z,99.99
2018-03-14T05:34:31.431Z,99.99
2018-03-14T05:35:31.366Z,99.99
2018-03-14T05:36:31.346Z,99.99
2018-03-14T05:37:31.327Z,99.99
2018-03-14T05:38:31.311Z,99.99
2018-03-14T05:39:31.285Z,99.99
2018-03-14T05:40:31.268Z,99.99
2018-03-14T05:41:31.240Z,99.99
2018-03-14T05:42:31.228Z,99.99
2018-03-14T05:43:31.207Z,99.99
2018-03-14T05:44:31.183Z,99.99
2018-03-14T05:45:31.158Z,99.99
2018-03-14T05:46:31.136Z,99.99
2018-03-14T05:47:31.158Z,99.99
2018-03-14T05:48:31.103Z,99.99
2018-03-14T05:49:31.076Z,99.99
2018-03-14T05:50:31.056Z,99.99
2018-03-14T05:51:31.035Z,99.99
2018-03-14T05:52:31.015Z,99.99
2018-03-14T05:53:30.991Z,99.99
2018-03-14T05:54:30.971Z,99.99
2018-03-14T05:55:30.953Z,99.99
2018-03-14T05:56:30.928Z,99.99
2018-03-14T05:57:30.907Z,99.99
2018-03-14T05:58:30.891Z,99.99
2018-03-14T05:59:30.869Z,99.99
2018-03-14T06:00:30.854Z,99.99
2018-03-14T06:01:30.833Z,99.99
2018-03-14T06:02:30.802Z,99.99
2018-03-14T06:03:30.785Z,99.99
2018-03-14T06:04:30.760Z,99.99
2018-03-14T06:05:30.741Z,99.99
2018-03-14T06:06:30.720Z,99.99
2018-03-14T06:07:30.702Z,99.99
2018-03-14T06:08:30.683Z,99.99
2018-03-14T06:09:30.667Z,99.99
2018-03-14T06:10:30.702Z,99.99
2018-03-14T06:11:30.614Z,99.99
2018-03-14T06:12:30.597Z,99.99
2018-03-14T06:13:30.573Z,99.99
2018-03-14T06:14:30.553Z,99.99
2018-03-14T06:15:30.537Z,99.99
2018-03-14T06:16:30.511Z,99.99
2018-03-14T06:17:30.495Z,99.99
2018-03-14T06:18:30.468Z,99.99
2018-03-14T06:19:30.455Z,99.99
2018-03-14T06:20:30.427Z,99.99
2018-03-14T06:21:30.407Z,99.99
2018-03-14T06:22:30.387Z,99.99
2018-03-14T06:23:30.366Z,99.99
2018-03-14T06:24:30.342Z,99.99
2018-03-14T06:25:30.322Z,99.99
2018-03-14T06:26:30.309Z,99.99
2018-03-14T06:27:30.284Z,99.99
2018-03-14T06:28:30.265Z,99.99
2018-03-14T06:29:30.247Z,99.99
2018-03-14T06:30:30.217Z,99.99
2018-03-14T06:31:30.200Z,99.99
2018-03-14T06:32:30.178Z,99.99
2018-03-14T06:33:30.153Z,99.99
2018-03-14T06:34:30.136Z,99.99
2018-03-14T06:35:30.120Z,99.99
2018-03-14T06:36:30.091Z,99.99
2018-03-14T06:37:30.076Z,99.99
2018-03-14T06:38:30.054Z,99.99
2018-03-14T06:39:30.037Z,99.99
2018-03-14T06:40:30.008Z,99.99
2018-03-14T06:41:29.989Z,99.99
2018-03-14T06:42:29.973Z,99.99
2018-03-14T06:43:29.947Z,99.99
2018-03-14T06:44:29.928Z,99.99
2018-03-14T06:45:29.906Z,99.99
2018-03-14T06:46:29.887Z,99.99
2018-03-14T06:47:29.866Z,99.99
2018-03-14T06:48:29.841Z,99.99
2018-03-14T06:49:29.821Z,99.99
2018-03-14T06:50:29.803Z,99.99
2018-03-14T06:51:29.786Z,99.99
2018-03-14T06:52:29.761Z,99.99
2018-03-14T06:53:29.736Z,99.99
2018-03-14T06:54:29.719Z,99.99
2018-03-14T06:55:29.700Z,99.99
2018-03-14T06:56:29.678Z,99.99
2018-03-14T06:57:29.658Z,99.99
2018-03-14T06:58:29.636Z,99.99
2018-03-14T06:59:29.620Z,99.99
2018-03-14T07:00:29.598Z,99.99
2018-03-14T07:01:29.568Z,99.99
2018-03-14T07:02:29.550Z,99.99
2018-03-14T07:03:29.530Z,99.99
2018-03-14T07:04:29.510Z,99.99
2018-03-14T07:05:29.490Z,99.99
2018-03-14T07:06:29.467Z,99.99
2018-03-14T07:07:29.448Z,99.99
2018-03-14T07:08:29.430Z,99.99
2018-03-14T07:09:29.406Z,99.99
2018-03-14T07:10:29.387Z,99.99
2018-03-14T07:11:29.367Z,99.99
2018-03-14T07:12:29.341Z,99.99
2018-03-14T07:13:29.327Z,99.99
2018-03-14T07:14:29.302Z,99.99
2018-03-14T07:15:29.282Z,99.99
2018-03-14T07:16:29.262Z,99.99
2018-03-14T07:17:29.249Z,99.99
2018-03-14T07:18:29.217Z,99.99
2018-03-14T07:19:29.197Z,99.99
2018-03-14T07:20:29.174Z,99.99
2018-03-14T07:21:29.156Z,99.99
2018-03-14T07:22:29.136Z,99.99
2018-03-14T07:23:29.113Z,99.99
2018-03-14T07:24:29.093Z,99.99
2018-03-14T07:25:29.075Z,99.99
2018-03-14T07:26:29.056Z,99.99
2018-03-14T07:27:29.031Z,99.99
2018-03-14T07:28:29.043Z,99.99
2018-03-14T07:29:28.988Z,99.99
2018-03-14T07:30:28.966Z,99.99
2018-03-14T07:31:28.951Z,99.99
2018-03-14T07:32:28.926Z,99.99
2018-03-14T07:33:28.907Z,99.99
2018-03-14T07:34:28.886Z,99.99
2018-03-14T07:35:28.867Z,99.99
2018-03-14T07:36:28.845Z,99.99
2018-03-14T07:37:28.823Z,99.99
2018-03-14T07:38:28.806Z,99.99
2018-03-14T07:39:28.779Z,99.99
2018-03-14T07:40:28.764Z,99.99
2018-03-14T07:41:28.741Z,99.99
2018-03-14T07:42:28.729Z,99.99
2018-03-14T07:43:28.700Z,99.99
2018-03-14T07:44:28.677Z,99.99
2018-03-14T07:45:28.655Z,99.99
2018-03-14T07:46:28.636Z,99.99
2018-03-14T07:47:28.630Z,99.99
2018-03-14T07:48:28.599Z,99.99
2018-03-14T07:49:28.572Z,99.99
2018-03-14T07:50:28.558Z,99.99
2018-03-14T07:51:28.538Z,99.99
2018-03-14T07:52:28.511Z,99.99
2018-03-14T07:53:28.501Z,99.99
2018-03-14T07:54:28.471Z,99.99
2018-03-14T07:55:28.457Z,99.99
2018-03-14T07:56:28.436Z,99.99
2018-03-14T07:57:28.410Z,99.99
2018-03-14T07:58:28.387Z,99.99
2018-03-14T07:59:28.370Z,99.99
2018-03-14T08:00:28.349Z,99.99
2018-03-14T08:01:28.368Z,99.99
2018-03-14T08:02:28.306Z,99.99
2018-03-14T08:03:28.290Z,99.99
2018-03-14T08:04:28.264Z,99.99
2018-03-14T08:05:28.256Z,99.99
2018-03-14T08:06:28.226Z,99.99
2018-03-14T08:07:28.203Z,99.99
2018-03-14T08:08:28.184Z,99.99
2018-03-14T08:09:28.160Z,99.99
2018-03-14T08:10:28.140Z,99.99
2018-03-14T08:11:28.126Z,99.99
2018-03-14T08:12:28.097Z,99.99
2018-03-14T08:13:28.174Z,99.99
2018-03-14T08:14:28.058Z,99.99
2018-03-14T08:15:28.038Z,99.99
2018-03-14T08:16:28.021Z,99.99
2018-03-14T08:17:27.997Z,99.99
2018-03-14T08:18:27.977Z,99.99
2018-03-14T08:19:27.956Z,99.99
2018-03-14T08:20:27.937Z,99.99
2018-03-14T08:21:27.912Z,99.99
2018-03-14T08:22:27.902Z,99.99
2018-03-14T08:23:27.892Z,99.99
2018-03-14T08:24:27.851Z,99.99
2018-03-14T08:25:27.844Z,99.99
2018-03-14T08:26:27.821Z,99.99
2018-03-14T08:27:27.792Z,99.99
2018-03-14T08:28:27.769Z,99.99
2018-03-14T08:29:27.746Z,99.99
2018-03-14T08:30:27.729Z,99.54
2018-03-14T08:31:27.718Z,99.99
2018-03-14T08:32:27.697Z,99.30
2018-03-14T08:33:27.669Z,99.99
2018-03-14T08:34:27.658Z,99.99
2018-03-14T08:35:27.627Z,99.63
2018-03-14T08:36:27.605Z,99.96
2018-03-14T08:37:27.588Z,99.49
2018-03-14T08:38:27.563Z,98.11
2018-03-14T08:39:27.541Z,97.40
2018-03-14T08:40:27.520Z,97.59
2018-03-14T08:41:27.504Z,98.59
2018-03-14T08:42:27.477Z,98.54
2018-03-14T08:43:27.459Z,96.83
2018-03-14T08:44:27.450Z,98.02
2018-03-14T08:45:27.419Z,98.68
2018-03-14T08:46:27.404Z,98.40
2018-03-14T08:47:27.375Z,97.92
2018-03-14T08:48:27.359Z,96.41
2018-03-14T08:49:27.335Z,94.51
2018-03-14T08:50:27.342Z,94.98
2018-03-14T08:51:27.292Z,94.51
2018-03-14T08:52:27.275Z,94.60
2018-03-14T08:53:27.251Z,95.07
2018-03-14T08:54:27.234Z,93.75
2018-03-14T08:55:27.208Z,93.84
2018-03-14T08:56:27.197Z,92.90
2018-03-14T08:57:27.167Z,93.46
2018-03-14T08:58:27.143Z,92.33
2018-03-14T08:59:27.153Z,92.04
2018-03-14T09:00:27.107Z,92.33
2018-03-14T09:01:27.087Z,91.94
2018-03-14T09:02:27.065Z,92.56
2018-03-14T09:03:27.046Z,92.09
2018-03-14T09:04:27.021Z,91.33
2018-03-14T09:05:27.003Z,91.24
2018-03-14T09:06:26.986Z,91.85
2018-03-14T09:07:26.993Z,91.33
2018-03-14T09:08:26.947Z,91.14
2018-03-14T09:09:26.923Z,89.90
2018-03-14T09:10:26.915Z,89.58
2018-03-14T09:11:26.887Z,89.39
2018-03-14T09:12:26.860Z,91.19
2018-03-14T09:13:26.842Z,90.62
2018-03-14T09:14:26.825Z,90.90
2018-03-14T09:15:26.798Z,92.23
2018-03-14T09:16:26.780Z,92.66
2018-03-14T09:17:26.756Z,92.18
2018-03-14T09:18:26.738Z,91.52
2018-03-14T09:19:26.775Z,91.04
2018-03-14T09:20:26.698Z,91.14
2018-03-14T09:21:26.677Z,90.95
2018-03-14T09:22:26.655Z,92.37
2018-03-14T09:23:26.634Z,93.80
2018-03-14T09:24:26.614Z,92.94
2018-03-14T09:25:26.596Z,92.85
2018-03-14T09:26:26.576Z,90.76
2018-03-14T09:27:26.558Z,91.42
2018-03-14T09:28:26.531Z,92.75
2018-03-14T09:29:26.511Z,93.04
2018-03-14T09:30:26.495Z,92.56
2018-03-14T09:31:26.476Z,92.09
2018-03-14T09:32:26.453Z,92.18
2018-03-14T09:33:26.433Z,92.18
2018-03-14T09:34:26.412Z,92.18
2018-03-14T09:35:26.390Z,92.75
2018-03-14T09:36:26.378Z,92.66
2018-03-14T09:37:26.358Z,91.33
2018-03-14T09:38:26.328Z,90.85
2018-03-14T09:39:26.310Z,89.43
2018-03-14T09:40:26.288Z,90.76
2018-03-14T09:41:26.272Z,91.33
2018-03-14T09:42:26.246Z,90.76
2018-03-14T09:43:26.228Z,90.09
2018-03-14T09:44:26.208Z,90.57
2018-03-14T09:45:26.208Z,90.28
2018-03-14T09:46:26.167Z,90.09
2018-03-14T09:47:26.148Z,91.24
2018-03-14T09:48:26.124Z,91.33
2018-03-14T09:49:26.109Z,91.09
2018-03-14T09:50:26.089Z,91.52
2018-03-14T09:51:26.088Z,90.47
2018-03-14T09:52:26.049Z,90.00
2018-03-14T09:53:26.032Z,89.90
2018-03-14T09:54:26.005Z,89.67
2018-03-14T09:55:25.988Z,89.90
2018-03-14T09:56:25.963Z,90.61
2018-03-14T09:57:25.949Z,89.33
2018-03-14T09:58:25.928Z,89.90
2018-03-14T09:59:25.906Z,90.76
2018-03-14T10:00:25.883Z,89.90
2018-03-14T10:01:25.867Z,88.86
2018-03-14T10:02:25.859Z,89.05
2018-03-14T10:03:25.825Z,89.24
2018-03-14T10:04:25.800Z,89.24
2018-03-14T10:05:25.784Z,89.62
2018-03-14T10:06:25.760Z,88.67
2018-03-14T10:07:25.741Z,88.10
2018-03-14T10:08:25.722Z,87.24
2018-03-14T10:09:25.699Z,88.67
2018-03-14T10:10:25.686Z,87.62
2018-03-14T10:11:25.666Z,88.86
2018-03-14T10:12:25.649Z,88.39
2018-03-14T10:13:25.625Z,88.67
2018-03-14T10:14:25.601Z,88.76
2018-03-14T10:15:25.586Z,87.34
2018-03-14T10:16:25.558Z,86.96
2018-03-14T10:17:25.543Z,87.62
2018-03-14T10:18:25.523Z,87.62
2018-03-14T10:19:25.517Z,88.10
2018-03-14T10:20:25.479Z,87.91
2018-03-14T10:21:25.466Z,88.95
2018-03-14T10:22:25.499Z,89.14
2018-03-14T10:23:25.425Z,89.53
2018-03-14T10:24:25.413Z,88.95
2018-03-14T10:25:25.430Z,89.62
2018-03-14T10:26:25.357Z,88.57
2018-03-14T10:27:25.339Z,88.29
2018-03-14T10:28:25.317Z,85.72
2018-03-14T10:29:25.295Z,85.25
2018-03-14T10:30:25.278Z,85.25
2018-03-14T10:31:25.257Z,84.40
2018-03-14T10:32:25.238Z,82.78
2018-03-14T10:33:25.219Z,83.26
2018-03-14T10:34:25.253Z,84.11
2018-03-14T10:35:25.177Z,84.34
2018-03-14T10:36:25.161Z,85.30
2018-03-14T10:37:25.137Z,85.01
2018-03-14T10:38:25.127Z,85.49
2018-03-14T10:39:25.098Z,83.87
2018-03-14T10:40:25.078Z,82.16
2018-03-14T10:41:25.069Z,81.55
2018-03-14T10:42:25.044Z,81.97
2018-03-14T10:43:25.014Z,82.45
2018-03-14T10:44:24.997Z,84.63
2018-03-14T10:45:24.990Z,84.63
2018-03-14T10:46:24.962Z,84.63
2018-03-14T10:47:24.938Z,83.11
2018-03-14T10:48:24.916Z,84.06
2018-03-14T10:49:24.932Z,83.20
2018-03-14T10:50:24.879Z,81.12
2018-03-14T10:51:24.858Z,81.21
2018-03-14T10:52:24.839Z,81.59
2018-03-14T10:53:24.816Z,79.88
2018-03-14T10:54:24.793Z,79.69
2018-03-14T10:55:24.777Z,79.31
2018-03-14T10:56:24.758Z,78.27
2018-03-14T10:57:24.735Z,77.70
2018-03-14T10:58:24.717Z,79.69
2018-03-14T10:59:24.698Z,82.64
2018-03-14T11:00:24.678Z,81.30
2018-03-14T11:01:24.654Z,80.35
2018-03-14T11:02:24.647Z,78.64
2018-03-14T11:03:24.619Z,78.93
2018-03-14T11:04:24.599Z,78.45
2018-03-14T11:05:24.579Z,78.74
2018-03-14T11:06:24.567Z,80.55
2018-03-14T11:07:24.536Z,80.26
2018-03-14T11:08:24.518Z,81.49
2018-03-14T11:09:24.495Z,81.40
2018-03-14T11:10:24.477Z,81.49
2018-03-14T11:11:24.458Z,80.64
2018-03-14T11:12:24.442Z,79.41
2018-03-14T11:13:24.418Z,78.55
2018-03-14T11:14:24.398Z,79.97
2018-03-14T11:15:24.373Z,79.41
2018-03-14T11:16:24.358Z,78.36
2018-03-14T11:17:24.338Z,79.22
2018-03-14T11:18:24.317Z,77.41
2018-03-14T11:19:24.297Z,77.79
2018-03-14T11:20:24.304Z,80.35
2018-03-14T11:21:24.261Z,78.83
2018-03-14T11:22:24.237Z,78.55
2018-03-14T11:23:24.222Z,79.03
2018-03-14T11:24:24.204Z,79.88
2018-03-14T11:25:24.177Z,79.22
2018-03-14T11:26:24.160Z,79.79
2018-03-14T11:27:24.138Z,78.64
2018-03-14T11:28:24.120Z,78.83
2018-03-14T11:29:24.098Z,78.83
2018-03-14T11:30:24.083Z,79.41
2018-03-14T11:31:24.059Z,79.03
2018-03-14T11:32:24.038Z,77.89
2018-03-14T11:33:24.023Z,77.60
2018-03-14T11:34:24.001Z,79.03
2018-03-14T11:35:23.985Z,79.60
2018-03-14T11:36:23.958Z,77.98
2018-03-14T11:37:23.945Z,77.89
2018-03-14T11:38:23.920Z,77.31
2018-03-14T11:39:23.904Z,78.08
2018-03-14T11:40:23.881Z,78.17
2018-03-14T11:41:23.871Z,78.08
2018-03-14T11:42:23.890Z,77.70
2018-03-14T11:43:23.830Z,78.93
2018-03-14T11:44:23.809Z,78.74
2018-03-14T11:45:23.786Z,78.74
2018-03-14T11:46:23.762Z,78.88
2018-03-14T11:47:23.748Z,78.21
2018-03-14T11:48:23.733Z,76.75
2018-03-14T11:49:23.708Z,77.98
2018-03-14T11:50:23.685Z,78.93
2018-03-14T11:51:23.664Z,78.55
2018-03-14T11:52:23.645Z,80.35
2018-03-14T11:53:23.629Z,81.02
2018-03-14T11:54:23.606Z,80.16
2018-03-14T11:55:23.590Z,79.97
2018-03-14T11:56:23.575Z,79.69
2018-03-14T11:57:23.549Z,78.93
2018-03-14T11:58:23.536Z,79.60
2018-03-14T11:59:23.508Z,78.64
2018-03-14T12:00:23.486Z,77.60
2018-03-14T12:01:23.465Z,79.03
2018-03-14T12:02:23.458Z,77.51
2018-03-14T12:03:23.431Z,77.26
2018-03-14T12:04:23.408Z,76.69
2018-03-14T12:05:23.389Z,78.21
2018-03-14T12:06:23.368Z,79.16
2018-03-14T12:07:23.354Z,78.30
2018-03-14T12:08:23.328Z,79.06
2018-03-14T12:09:23.313Z,76.78
2018-03-14T12:10:23.288Z,76.40
2018-03-14T12:11:23.269Z,77.55
2018-03-14T12:12:23.277Z,77.83
2018-03-14T12:13:23.233Z,76.59
2018-03-14T12:14:23.218Z,75.74
2018-03-14T12:15:23.200Z,74.88
2018-03-14T12:16:23.182Z,76.12
2018-03-14T12:17:23.150Z,76.03
2018-03-14T12:18:23.135Z,75.64
2018-03-14T12:19:23.117Z,75.93
2018-03-14T12:20:23.102Z,76.69
2018-03-14T12:21:23.079Z,75.07
2018-03-14T12:22:23.058Z,74.31
2018-03-14T12:23:23.035Z,75.64
2018-03-14T12:24:23.018Z,77.55
2018-03-14T12:25:23.000Z,79.44
2018-03-14T12:26:22.977Z,79.63
2018-03-14T12:27:22.956Z,76.21
2018-03-14T12:28:22.941Z,75.93
2018-03-14T12:29:22.919Z,75.64
2018-03-14T12:30:22.898Z,76.40
2018-03-14T12:31:22.879Z,76.12
2018-03-14T12:32:22.860Z,75.64
2018-03-14T12:33:22.845Z,75.64
2018-03-14T12:34:22.830Z,75.74
2018-03-14T12:35:22.810Z,76.21
2018-03-14T12:36:22.783Z,74.51
2018-03-14T12:37:22.762Z,74.41
2018-03-14T12:38:22.747Z,74.12
2018-03-14T12:39:22.723Z,73.74
2018-03-14T12:40:22.713Z,74.88
2018-03-14T12:41:22.691Z,76.40
2018-03-14T12:42:22.668Z,77.49
2018-03-14T12:43:22.659Z,76.16
2018-03-14T12:44:22.627Z,73.69
2018-03-14T12:45:22.608Z,74.60
2018-03-14T12:46:22.595Z,73.93
2018-03-14T12:47:22.572Z,74.31
2018-03-14T12:48:22.552Z,73.93
2018-03-14T12:49:22.528Z,75.17
2018-03-14T12:50:22.513Z,75.45
2018-03-14T12:51:22.504Z,75.64
2018-03-14T12:52:22.478Z,74.31